createdAt,value
2022-09-28T00:01:01.427Z,152162.03
2022-09-28T00:03:29.351Z,152202.03
2022-09-28T00:06:03.598Z,152198.19
2022-09-28T00:08:31.581Z,152209.78
2022-09-28T00:10:59.325Z,152203.31
2022-09-28T00:13:27.381Z,152209.78
2022-09-28T00:16:03.281Z,152189.13
2022-09-28T00:18:31.756Z,152212.31
2022-09-28T00:21:06.950Z,152222.66
2022-09-28T00:23:56.123Z,152240.72
2022-09-28T00:26:23.947Z,152245.88
2022-09-28T00:28:53.044Z,152220.09
2022-09-28T00:31:20.876Z,152203.31
2022-09-28T00:33:51.451Z,152212.31
2022-09-28T00:36:20.620Z,152212.31
2022-09-28T00:38:48.348Z,152202.03
2022-09-28T00:41:17.256Z,152217.50
2022-09-28T00:43:44.999Z,152227.84
2022-09-28T00:46:19.788Z,152185.25
2022-09-28T00:48:56.093Z,152168.47
2022-09-28T00:51:27.198Z,152190.44
2022-09-28T00:53:56.816Z,152125.94
2022-09-28T00:56:28.610Z,152158.19
2022-09-28T00:58:58.054Z,152145.25
2022-09-28T01:01:25.883Z,152129.81
2022-09-28T01:03:54.788Z,152118.19
2022-09-28T01:06:24.361Z,152145.25
2022-09-28T01:08:57.091Z,152106.59
2022-09-28T01:11:26.382Z,152083.38
2022-09-28T01:13:57.459Z,152087.22
2022-09-28T01:16:34.603Z,152075.63
2022-09-28T01:19:15.404Z,152091.13
2022-09-28T01:21:53.072Z,152124.63
2022-09-28T01:24:40.774Z,152101.44
2022-09-28T01:27:16.817Z,152116.88
2022-09-28T01:29:49.211Z,152125.94
2022-09-28T01:32:25.949Z,152111.75
2022-09-28T01:34:58.931Z,152113.03
2022-09-28T01:37:36.526Z,152150.44
2022-09-28T01:40:08.192Z,152091.13
2022-09-28T01:42:40.958Z,152055.00
2022-09-28T01:45:14.607Z,152033.06
2022-09-28T01:47:44.517Z,152073.03
2022-09-28T01:50:15.544Z,152091.13
2022-09-28T01:52:50.345Z,152091.13
2022-09-28T01:55:24.525Z,152074.34
2022-09-28T01:57:58.468Z,152074.34
2022-09-28T02:00:27.762Z,152058.84
2022-09-28T02:03:01.739Z,152067.88
2022-09-28T02:05:33.918Z,152085.97
2022-09-28T02:08:07.832Z,152097.56
2022-09-28T02:10:41.743Z,152119.47
2022-09-28T02:13:15.544Z,152116.88
2022-09-28T02:15:50.228Z,152134.97
2022-09-28T02:18:18.655Z,152073.03
2022-09-28T02:20:53.954Z,152106.59
2022-09-28T02:23:25.044Z,152109.19
2022-09-28T02:25:57.071Z,152113.03
2022-09-28T02:28:26.236Z,152093.66
2022-09-28T02:30:54.112Z,152115.63
2022-09-28T02:33:25.827Z,152065.34
2022-09-28T02:35:53.766Z,152062.75
2022-09-28T02:38:21.575Z,152006.00
2022-09-28T02:40:57.752Z,152026.63
2022-09-28T02:43:35.309Z,152044.66
2022-09-28T02:46:16.203Z,152056.28
2022-09-28T02:49:20.293Z,152064.03
2022-09-28T02:51:59.153Z,152034.38
2022-09-28T02:55:03.538Z,152071.78
2022-09-28T02:57:43.911Z,152067.88
2022-09-28T03:00:18.773Z,152084.66
2022-09-28T03:02:54.924Z,152067.88
2022-09-28T03:05:26.682Z,152071.78
2022-09-28T03:07:59.875Z,152071.78
2022-09-28T03:10:34.710Z,152100.16
2022-09-28T03:13:04.452Z,152043.41
2022-09-28T03:15:35.689Z,152085.97
2022-09-28T03:18:03.511Z,152094.97
2022-09-28T03:20:33.443Z,152060.19
2022-09-28T03:23:23.159Z,152036.97
2022-09-28T03:25:49.168Z,152088.56
2022-09-28T03:28:17.207Z,152025.34
2022-09-28T03:30:46.331Z,152044.66
2022-09-28T03:33:14.020Z,152082.06
2022-09-28T03:35:41.839Z,152064.03
2022-09-28T03:38:09.534Z,152073.03
2022-09-28T03:40:37.357Z,152040.81
2022-09-28T03:43:05.123Z,152055.00
2022-09-28T03:45:32.914Z,152083.38
2022-09-28T03:48:02.408Z,152044.66
2022-09-28T03:50:30.109Z,152042.13
2022-09-28T03:53:03.492Z,152047.25
2022-09-28T03:55:31.365Z,152047.25
2022-09-28T03:57:59.107Z,152057.59
2022-09-28T04:00:27.545Z,152018.94
2022-09-28T04:02:55.358Z,152031.78
2022-09-28T04:05:24.623Z,152055.00
2022-09-28T04:07:53.858Z,152021.47
2022-09-28T04:10:21.627Z,152029.22
2022-09-28T04:12:49.794Z,152071.78
2022-09-28T04:15:17.858Z,152055.00
2022-09-28T04:17:45.584Z,152051.16
2022-09-28T04:20:13.367Z,152034.38
2022-09-28T04:22:43.122Z,152049.84
2022-09-28T04:25:11.616Z,152044.66
2022-09-28T04:27:56.615Z,152053.72
2022-09-28T04:30:24.767Z,152035.66
2022-09-28T04:32:52.434Z,152009.84
2022-09-28T04:35:20.541Z,152017.59
2022-09-28T04:37:49.672Z,151993.13
2022-09-28T04:40:17.795Z,151990.56
2022-09-28T04:42:45.555Z,152008.59
2022-09-28T04:45:13.284Z,152030.53
2022-09-28T04:47:41.042Z,152049.84
2022-09-28T04:50:09.503Z,152031.78
2022-09-28T04:52:37.794Z,152026.63
2022-09-28T04:55:08.169Z,152045.97
2022-09-28T04:57:36.237Z,152029.22
2022-09-28T05:00:05.591Z,152049.84
2022-09-28T05:02:33.599Z,152043.41
2022-09-28T05:05:01.470Z,152047.25
2022-09-28T05:07:29.235Z,152031.78
2022-09-28T05:09:57.034Z,152027.94
2022-09-28T05:12:26.439Z,152042.13
2022-09-28T05:14:54.223Z,152076.94
2022-09-28T05:17:21.953Z,152044.66
2022-09-28T05:19:49.730Z,152040.81
2022-09-28T05:22:17.448Z,152053.72
2022-09-28T05:24:46.441Z,152080.78
2022-09-28T05:27:14.192Z,152073.03
2022-09-28T05:29:43.357Z,152067.88
2022-09-28T05:32:11.278Z,152044.66
2022-09-28T05:34:39.080Z,152034.38
2022-09-28T05:37:06.802Z,152047.25
2022-09-28T05:39:34.428Z,152039.56
2022-09-28T05:42:02.209Z,152051.16
2022-09-28T05:44:29.962Z,152039.56
2022-09-28T05:46:59.150Z,151950.59
2022-09-28T05:49:29.154Z,152003.44
2022-09-28T05:51:56.951Z,152040.81
2022-09-28T05:54:24.933Z,152024.03
2022-09-28T05:56:52.789Z,152034.38
2022-09-28T05:59:20.560Z,152039.56
2022-09-28T06:01:48.362Z,152038.22
2022-09-28T06:04:17.720Z,152008.59
2022-09-28T06:06:45.552Z,152000.84
2022-09-28T06:09:13.275Z,152057.59
2022-09-28T06:11:41.023Z,152065.34
2022-09-28T06:14:08.930Z,152065.34
2022-09-28T06:16:41.637Z,152043.41
2022-09-28T06:19:12.977Z,152078.22
2022-09-28T06:21:42.185Z,152034.38
2022-09-28T06:24:09.974Z,152051.16
2022-09-28T06:26:37.846Z,152045.97
2022-09-28T06:29:05.587Z,152071.78
2022-09-28T06:31:33.475Z,152045.97
2022-09-28T06:34:02.137Z,152079.47
2022-09-28T06:36:31.224Z,152078.22
2022-09-28T06:39:00.755Z,152097.56
2022-09-28T06:41:28.476Z,152079.47
2022-09-28T06:43:56.444Z,152052.41
2022-09-28T06:46:24.445Z,152075.63
2022-09-28T06:48:52.545Z,152100.16
2022-09-28T06:51:20.302Z,152105.28
2022-09-28T06:53:48.047Z,152084.66
2022-09-28T06:56:18.051Z,152104.00
2022-09-28T06:58:45.855Z,152096.25
2022-09-28T07:01:13.729Z,152129.81
2022-09-28T07:03:41.692Z,152113.03
2022-09-28T07:06:12.369Z,152089.81
2022-09-28T07:08:40.772Z,152122.06
2022-09-28T07:11:09.050Z,152065.34
2022-09-28T07:13:53.428Z,152083.38
2022-09-28T07:16:26.410Z,152082.06
2022-09-28T07:18:54.450Z,152078.22
2022-09-28T07:21:29.522Z,152085.97
2022-09-28T07:23:57.772Z,152102.75
2022-09-28T07:26:25.729Z,152123.38
2022-09-28T07:28:55.972Z,152094.97
2022-09-28T07:31:25.554Z,152122.06
2022-09-28T07:33:54.158Z,152133.66
2022-09-28T07:36:22.777Z,152137.56
2022-09-28T07:38:50.726Z,152144.00
2022-09-28T07:41:21.698Z,152144.00
2022-09-28T07:43:49.792Z,152124.63
2022-09-28T07:46:19.257Z,152144.00
2022-09-28T07:48:47.096Z,152141.41
2022-09-28T07:51:14.846Z,152186.56
2022-09-28T07:53:42.788Z,152184.00
2022-09-28T07:56:10.609Z,152208.47
2022-09-28T07:58:40.122Z,152225.25
2022-09-28T08:01:10.422Z,152242.03
2022-09-28T08:03:40.596Z,152244.63
2022-09-28T08:06:12.543Z,152244.63
2022-09-28T08:08:43.824Z,152182.66
2022-09-28T08:11:12.648Z,152244.63
2022-09-28T08:13:40.575Z,152272.97
2022-09-28T08:16:08.972Z,152275.56
2022-09-28T08:18:37.108Z,152271.69
2022-09-28T08:21:24.773Z,152283.31
2022-09-28T08:23:52.956Z,152289.75
2022-09-28T08:26:20.766Z,152302.69
2022-09-28T08:28:48.539Z,152305.25
2022-09-28T08:31:16.335Z,152325.91
2022-09-28T08:33:44.199Z,152325.91
2022-09-28T08:36:13.384Z,152301.38
2022-09-28T08:38:41.147Z,152278.13
2022-09-28T08:41:18.553Z,152320.72
2022-09-28T08:44:01.958Z,152303.94
2022-09-28T08:46:34.587Z,152300.09
2022-09-28T08:49:24.064Z,152355.63
2022-09-28T08:51:59.376Z,152364.66
2022-09-28T08:54:36.784Z,152373.69
2022-09-28T08:57:08.576Z,152349.19
2022-09-28T08:59:48.399Z,152403.41
2022-09-28T09:02:22.656Z,152349.19
2022-09-28T09:04:51.637Z,152404.66
2022-09-28T09:07:48.643Z,152404.66
2022-09-28T09:10:37.977Z,152407.25
2022-09-28T09:13:25.361Z,152439.53
2022-09-28T09:15:56.968Z,152467.94
2022-09-28T09:18:37.291Z,152505.38
2022-09-28T09:21:10.951Z,152448.56
2022-09-28T09:23:55.040Z,152497.59
2022-09-28T09:26:30.744Z,152487.31
2022-09-28T09:29:25.709Z,152526.03
2022-09-28T09:32:07.248Z,152536.31
2022-09-28T09:34:52.045Z,152531.19
2022-09-28T09:37:41.605Z,152575.09
2022-09-28T09:40:40.989Z,152599.59
2022-09-28T09:43:31.798Z,152635.78
2022-09-28T09:46:12.841Z,152624.16
2022-09-28T09:48:51.314Z,152653.88
2022-09-28T09:51:26.087Z,152705.53
2022-09-28T09:54:00.110Z,152722.34
2022-09-28T09:56:35.773Z,152771.44
2022-09-28T09:59:09.283Z,152710.72
2022-09-28T10:01:39.843Z,152666.81
2022-09-28T10:04:13.963Z,152690.06
2022-09-28T10:06:43.560Z,152772.72
2022-09-28T10:09:15.153Z,152863.22
2022-09-28T10:11:49.924Z,152903.28
2022-09-28T10:14:20.073Z,152803.75
2022-09-28T10:16:49.307Z,152876.16
2022-09-28T10:19:19.418Z,152825.72
2022-09-28T10:21:50.372Z,152943.38
2022-09-28T10:24:23.781Z,153002.88
2022-09-28T10:26:56.530Z,152949.81
2022-09-28T10:29:27.543Z,152865.81
2022-09-28T10:31:55.913Z,152883.94
2022-09-28T10:34:28.686Z,152856.75
2022-09-28T10:37:00.618Z,152953.72
2022-09-28T10:39:36.519Z,152960.19
2022-09-28T10:42:08.953Z,153066.19
2022-09-28T10:44:51.300Z,153180.03
2022-09-28T10:47:21.625Z,153198.13
2022-09-28T10:49:51.703Z,153218.88
2022-09-28T10:52:36.572Z,153309.44
2022-09-28T10:55:25.679Z,153119.25
2022-09-28T10:57:55.046Z,153253.81
2022-09-28T11:00:35.834Z,153176.13
2022-09-28T11:03:07.383Z,153077.81
2022-09-28T11:05:39.038Z,153039.03
2022-09-28T11:08:18.906Z,152942.09
2022-09-28T11:10:46.835Z,153059.72
2022-09-28T11:13:16.150Z,153182.63
2022-09-28T11:15:45.314Z,153225.31
2022-09-28T11:18:22.490Z,153292.66
2022-09-28T11:20:50.335Z,153235.69
2022-09-28T11:23:24.014Z,153306.84
2022-09-28T11:26:01.185Z,153334.03
2022-09-28T11:28:33.856Z,153332.72
2022-09-28T11:31:03.429Z,153256.41
2022-09-28T11:33:34.150Z,153284.88
2022-09-28T11:36:17.111Z,153178.72
2022-09-28T11:38:56.140Z,153134.75
2022-09-28T11:41:41.763Z,153083.00
2022-09-28T11:44:29.540Z,153271.91
2022-09-28T11:47:13.227Z,153375.44
2022-09-28T11:49:44.861Z,153462.19
2022-09-28T11:52:20.251Z,153308.16
2022-09-28T11:54:55.985Z,153423.38
2022-09-28T11:57:30.677Z,153525.63
2022-09-28T12:00:03.795Z,153637.03
2022-09-28T12:02:37.363Z,153526.91
2022-09-28T12:05:18.506Z,153366.41
2022-09-28T12:07:52.290Z,153411.72
2022-09-28T12:10:27.417Z,153407.78
2022-09-28T12:13:01.232Z,153431.09
2022-09-28T12:16:07.767Z,153309.44
2022-09-28T12:18:41.654Z,153346.97
2022-09-28T12:21:23.545Z,153387.09
2022-09-28T12:23:53.949Z,153389.69
2022-09-28T12:26:31.027Z,153349.56
2022-09-28T12:29:03.515Z,153319.81
2022-09-28T12:31:38.969Z,153305.56
2022-09-28T12:34:07.074Z,153221.47
2022-09-28T12:36:47.742Z,153117.91
2022-09-28T12:39:56.513Z,153089.47
2022-09-28T12:42:41.190Z,152995.09
2022-09-28T12:45:24.373Z,152882.63
2022-09-28T12:48:12.921Z,153010.59
2022-09-28T12:50:53.995Z,153067.50
2022-09-28T12:53:38.801Z,153011.91
2022-09-28T12:56:18.027Z,153095.97
2022-09-28T12:59:01.517Z,153124.44
2022-09-28T13:01:43.538Z,153084.31
2022-09-28T13:04:44.135Z,153032.59
2022-09-28T13:07:21.638Z,153114.06
2022-09-28T13:10:01.361Z,153165.81
2022-09-28T13:12:41.470Z,153183.91
2022-09-28T13:15:32.068Z,153225.31
2022-09-28T13:18:09.627Z,153246.03
2022-09-28T13:20:52.474Z,153297.78
2022-09-28T13:23:23.521Z,153225.31
2022-09-28T13:25:56.649Z,153161.88
2022-09-28T13:28:27.439Z,153156.75
2022-09-28T13:33:36.712Z,153142.53
2022-09-28T13:36:37.948Z,153139.94
2022-09-28T13:39:48.796Z,153253.81
2022-09-28T13:42:41.641Z,153411.72
2022-09-28T13:45:26.231Z,153424.63
2022-09-28T13:48:04.109Z,153471.25
2022-09-28T13:50:44.667Z,153372.84
2022-09-28T13:53:24.556Z,153466.03
2022-09-28T13:56:02.246Z,153490.66
2022-09-28T13:58:34.822Z,153543.75
2022-09-28T14:01:07.885Z,153403.94
2022-09-28T14:03:55.868Z,153504.91
2022-09-28T14:06:26.564Z,153477.69
2022-09-28T14:09:31.900Z,153458.31
2022-09-28T14:12:03.011Z,153447.94
2022-09-28T14:14:45.479Z,153371.59
2022-09-28T14:17:51.648Z,153336.66
2022-09-28T14:20:24.880Z,153357.34
2022-09-28T14:23:21.168Z,153437.59
2022-09-28T14:26:06.943Z,153396.16
2022-09-28T14:28:54.549Z,153292.66
2022-09-28T14:31:27.544Z,153321.06
2022-09-28T14:33:58.224Z,153370.25
2022-09-28T14:36:42.469Z,153384.50
2022-09-28T14:39:40.279Z,153406.53
2022-09-28T14:42:16.049Z,153335.31
2022-09-28T14:45:35.735Z,153226.66
2022-09-28T14:48:43.524Z,153158.03
2022-09-28T14:51:48.704Z,153204.59
2022-09-28T14:54:21.179Z,153163.22
2022-09-28T14:57:08.027Z,153154.16
2022-09-28T14:59:43.603Z,153183.91
2022-09-28T15:02:20.917Z,153062.31
2022-09-28T15:04:51.708Z,153070.09
2022-09-28T15:07:25.294Z,153111.47
2022-09-28T15:09:55.226Z,153095.97
2022-09-28T15:12:27.566Z,153112.78
2022-09-28T15:14:58.740Z,153042.91
2022-09-28T15:17:33.636Z,153057.13
2022-09-28T15:20:26.695Z,153064.91
2022-09-28T15:22:57.588Z,153094.63
2022-09-28T15:25:27.106Z,153150.25
2022-09-28T15:27:56.747Z,153148.97
2022-09-28T15:30:28.287Z,153133.47
2022-09-28T15:33:18.952Z,153155.44
2022-09-28T15:35:49.700Z,153121.81
2022-09-28T15:38:18.453Z,153121.81
2022-09-28T15:40:47.682Z,153062.31
2022-09-28T15:43:32.935Z,153054.53
2022-09-28T15:46:07.621Z,152996.38
2022-09-28T15:48:46.629Z,152988.63
2022-09-28T15:51:14.469Z,152951.16
2022-09-28T15:53:44.739Z,152974.41
2022-09-28T15:56:12.964Z,152927.88
2022-09-28T15:58:40.971Z,152911.06
2022-09-28T16:01:36.188Z,152883.94
2022-09-28T16:04:36.300Z,152898.09
2022-09-28T16:07:24.439Z,152860.66
2022-09-28T16:09:57.325Z,152851.59
2022-09-28T16:12:31.804Z,152841.28
2022-09-28T16:15:05.039Z,152829.63
2022-09-28T16:17:35.554Z,152797.28
2022-09-28T16:20:22.637Z,152834.81
2022-09-28T16:22:50.840Z,152784.34
2022-09-28T16:25:23.887Z,152824.47
2022-09-28T16:27:53.096Z,152830.91
2022-09-28T16:30:24.445Z,152828.31
2022-09-28T16:32:58.001Z,152845.13
2022-09-28T16:35:30.092Z,152764.94
2022-09-28T16:38:10.378Z,152841.28
2022-09-28T16:40:41.925Z,152752.06
2022-09-28T16:43:16.944Z,152744.28
2022-09-28T16:45:44.798Z,152710.72
2022-09-28T16:48:20.374Z,152735.25
2022-09-28T16:50:49.604Z,152770.13
2022-09-28T16:53:35.912Z,152784.34
2022-09-28T16:56:05.542Z,152795.97
2022-09-28T16:58:33.689Z,152754.63
2022-09-28T17:01:02.176Z,152766.28
2022-09-28T17:03:30.397Z,152740.44
2022-09-28T17:05:59.739Z,152739.16
2022-09-28T17:08:27.562Z,152706.81
2022-09-28T17:13:45.868Z,152749.47
2022-09-28T17:16:15.530Z,152735.25
2022-09-28T17:18:43.339Z,152675.84
2022-09-28T17:21:15.842Z,152697.78
2022-09-28T17:23:43.925Z,152706.81
2022-09-28T17:26:19.504Z,152713.31
2022-09-28T17:28:47.665Z,152655.19
2022-09-28T17:31:16.740Z,152643.56
2022-09-28T17:33:44.842Z,152621.59
2022-09-28T17:36:16.577Z,152624.16
2022-09-28T17:38:44.974Z,152666.81
2022-09-28T17:41:18.045Z,152679.72
2022-09-28T17:43:48.255Z,152640.97
2022-09-28T17:46:27.215Z,152607.38
2022-09-28T17:48:55.286Z,152558.28
2022-09-28T17:51:24.613Z,152526.03
2022-09-28T17:53:53.134Z,152529.88
2022-09-28T17:56:21.182Z,152484.72
2022-09-28T17:58:49.122Z,152496.34
2022-09-28T18:01:16.983Z,152496.34
2022-09-28T18:03:44.763Z,152502.78
2022-09-28T18:06:15.278Z,152559.63
2022-09-28T18:08:45.291Z,152544.09
2022-09-28T18:11:13.111Z,152511.81
2022-09-28T18:13:41.033Z,152511.81
2022-09-28T18:16:09.723Z,152529.88
2022-09-28T18:18:39.770Z,152537.66
2022-09-28T18:21:07.656Z,152547.94
2022-09-28T18:23:36.820Z,152509.22
2022-09-28T18:26:11.085Z,152529.88
2022-09-28T18:28:39.086Z,152476.97
2022-09-28T18:31:09.503Z,152511.81
2022-09-28T18:33:37.911Z,152483.41
2022-09-28T18:36:07.227Z,152449.88
2022-09-28T18:38:36.284Z,152451.13
2022-09-28T18:41:10.217Z,152365.97
2022-09-28T18:43:38.117Z,152396.91
2022-09-28T18:46:09.355Z,152393.06
2022-09-28T18:48:37.624Z,152356.88
2022-09-28T18:51:09.451Z,152312.97
2022-09-28T18:53:37.642Z,152311.72
2022-09-28T18:56:14.465Z,152275.56
2022-09-28T18:58:43.831Z,152284.56
2022-09-28T19:01:29.585Z,152289.75
2022-09-28T19:04:00.424Z,152271.69
2022-09-28T19:06:29.122Z,152279.44
2022-09-28T19:08:57.848Z,152291.06
2022-09-28T19:11:28.513Z,152257.50
2022-09-28T19:13:56.621Z,152240.72
2022-09-28T19:16:26.356Z,152233.00
2022-09-28T19:18:54.417Z,152213.66
2022-09-28T19:21:22.411Z,152160.78
2022-09-28T19:23:50.782Z,152187.84
2022-09-28T19:26:21.475Z,152180.09
2022-09-28T19:28:52.158Z,152127.22
2022-09-28T19:31:21.006Z,152154.28
2022-09-28T19:33:48.875Z,152156.88
2022-09-28T19:36:18.843Z,152155.59
2022-09-28T19:38:47.256Z,152147.84
2022-09-28T19:41:39.570Z,152154.28
2022-09-28T19:44:19.477Z,152133.66
2022-09-28T19:46:47.633Z,152137.56
2022-09-28T19:49:19.643Z,152088.56
2022-09-28T19:52:11.577Z,152104.00
2022-09-28T19:54:38.167Z,152074.34
2022-09-28T19:57:07.845Z,152042.13
2022-09-28T19:59:38.317Z,152058.84
2022-09-28T20:02:07.957Z,152058.84
2022-09-28T20:04:36.251Z,152047.25
2022-09-28T20:07:05.230Z,152018.94
2022-09-28T20:09:33.772Z,151982.81
2022-09-28T20:12:01.926Z,151994.41
2022-09-28T20:14:33.103Z,151998.25
2022-09-28T20:17:07.104Z,151987.97
2022-09-28T20:19:35.122Z,151942.84
2022-09-28T20:22:03.506Z,151938.97
2022-09-28T20:24:31.691Z,151918.38
2022-09-28T20:27:01.248Z,151906.78
2022-09-28T20:29:31.340Z,151914.47
2022-09-28T20:31:59.191Z,151922.22
2022-09-28T20:34:28.761Z,151931.22
2022-09-28T20:36:56.548Z,151949.25
2022-09-28T20:39:24.358Z,151905.44
2022-09-28T20:41:52.163Z,151931.22
2022-09-28T20:44:20.031Z,151923.47
2022-09-28T20:46:50.970Z,151923.47
2022-09-28T20:49:18.764Z,151886.16
2022-09-28T20:51:47.928Z,151887.44
2022-09-28T20:54:15.785Z,151910.63
2022-09-28T20:56:43.597Z,151853.91
2022-09-28T20:59:13.124Z,151859.06
2022-09-28T21:01:41.567Z,151851.34
2022-09-28T21:04:10.642Z,151826.84
2022-09-28T21:06:39.985Z,151833.28
2022-09-28T21:09:10.512Z,151811.41
2022-09-28T21:11:39.450Z,151812.66
2022-09-28T21:14:10.273Z,151804.94
2022-09-28T21:16:38.479Z,151776.63
2022-09-28T21:19:06.342Z,151781.75
2022-09-28T21:21:34.428Z,151766.28
2022-09-28T21:24:02.713Z,151774.03
2022-09-28T21:26:32.847Z,151752.13
2022-09-28T21:29:02.336Z,151709.53
2022-09-28T21:31:32.768Z,151727.66
2022-09-28T21:34:00.880Z,151682.53
2022-09-28T21:36:29.058Z,151686.38
2022-09-28T21:38:56.869Z,151708.28
2022-09-28T21:41:24.952Z,151701.84
2022-09-28T21:43:54.195Z,151712.13
2022-09-28T21:46:22.135Z,151719.91
2022-09-28T21:48:53.629Z,151667.06
2022-09-28T21:51:21.678Z,151663.19
2022-09-28T21:53:49.779Z,151683.78
2022-09-28T21:56:17.601Z,151678.66
2022-09-28T21:58:45.356Z,151682.53
2022-09-28T22:01:16.782Z,151701.84
2022-09-28T22:03:46.715Z,151712.13
2022-09-28T22:06:15.580Z,151714.75
2022-09-28T22:08:43.424Z,151695.41
2022-09-28T22:11:13.134Z,151701.84
2022-09-28T22:13:42.740Z,151683.78
2022-09-28T22:16:11.365Z,151716.06
2022-09-28T22:18:41.492Z,151737.94
2022-09-28T22:21:11.810Z,151719.91
2022-09-28T22:23:40.690Z,151740.53
2022-09-28T22:26:11.087Z,151736.69
2022-09-28T22:28:39.884Z,151717.34
2022-09-28T22:31:07.833Z,151732.78
2022-09-28T22:33:35.611Z,151723.78
2022-09-28T22:36:05.319Z,151728.94
2022-09-28T22:38:33.601Z,151743.09
2022-09-28T22:41:03.385Z,151704.44
2022-09-28T22:43:31.753Z,151734.09
2022-09-28T22:46:04.653Z,151725.09
2022-09-28T22:48:32.762Z,151709.53
2022-09-28T22:51:00.652Z,151690.25
2022-09-28T22:53:30.033Z,151704.44
2022-09-28T22:55:59.127Z,151686.38
2022-09-28T22:58:26.958Z,151681.25
2022-09-28T23:00:57.199Z,151692.84
2022-09-28T23:03:25.127Z,151656.75
2022-09-28T23:05:54.333Z,151673.50
2022-09-28T23:08:23.517Z,151655.50
2022-09-28T23:10:52.923Z,151670.94
2022-09-28T23:13:20.845Z,151668.34
2022-09-28T23:15:56.354Z,151611.66
2022-09-28T23:18:24.248Z,151629.72
2022-09-28T23:20:55.342Z,151614.25
2022-09-28T23:23:23.705Z,151580.78
2022-09-28T23:25:53.630Z,151621.97
2022-09-28T23:28:23.312Z,151624.56
2022-09-28T23:30:52.147Z,151605.22
2022-09-28T23:33:21.407Z,151593.66
2022-09-28T23:35:49.505Z,151596.22
2022-09-28T23:38:19.045Z,151558.88
2022-09-28T23:40:47.748Z,151574.38
2022-09-28T23:43:17.153Z,151575.63
2022-09-28T23:45:44.931Z,151565.31
2022-09-28T23:48:15.080Z,151539.59
2022-09-28T23:50:43.217Z,151524.13
2022-09-28T23:53:11.067Z,151522.84
2022-09-28T23:55:39.117Z,151527.97
2022-09-28T23:58:07.235Z,151504.81
